createdAt,value
2023-05-15T00:00:10.144Z,97.99
2023-05-15T00:01:10.010Z,98.24
2023-05-15T00:02:10.170Z,98.44
2023-05-15T00:03:10.128Z,98.65
2023-05-15T00:04:10.191Z,98.65
2023-05-15T00:05:09.998Z,98.75
2023-05-15T00:06:10.073Z,98.96
2023-05-15T00:07:09.957Z,99.05
2023-05-15T00:08:10.076Z,99.26
2023-05-15T00:09:09.947Z,99.26
2023-05-15T00:10:10.101Z,99.57
2023-05-15T00:11:09.918Z,99.83
2023-05-15T00:12:10.018Z,99.26
2023-05-15T00:13:09.905Z,99.26
2023-05-15T00:14:10.069Z,99.67
2023-05-15T00:15:09.870Z,99.42
2023-05-15T00:16:10.238Z,99.73
2023-05-15T00:17:09.874Z,99.32
2023-05-15T00:18:10.016Z,98.60
2023-05-15T00:19:09.957Z,98.19
2023-05-15T00:20:10.020Z,98.24
2023-05-15T00:21:09.804Z,98.24
2023-05-15T00:22:09.988Z,98.44
2023-05-15T00:23:09.786Z,98.44
2023-05-15T00:24:09.928Z,98.33
2023-05-15T00:25:09.788Z,98.33
2023-05-15T00:26:09.906Z,98.44
2023-05-15T00:27:09.750Z,98.24
2023-05-15T00:28:09.915Z,98.44
2023-05-15T00:29:09.723Z,98.24
2023-05-15T00:30:09.880Z,98.33
2023-05-15T00:31:09.752Z,98.28
2023-05-15T00:32:09.856Z,98.49
2023-05-15T00:33:09.700Z,98.69
2023-05-15T00:34:09.892Z,98.79
2023-05-15T00:35:09.700Z,98.69
2023-05-15T00:36:09.789Z,98.90
2023-05-15T00:37:09.645Z,99.00
2023-05-15T00:38:11.827Z,98.90
2023-05-15T00:39:09.670Z,99.82
2023-05-15T00:40:10.798Z,99.99
2023-05-15T00:41:09.610Z,99.51
2023-05-15T00:42:09.720Z,99.99
2023-05-15T00:43:09.600Z,98.07
2023-05-15T00:44:09.747Z,97.87
2023-05-15T00:45:10.095Z,97.45
2023-05-15T00:46:09.647Z,97.05
2023-05-15T00:47:09.727Z,97.05
2023-05-15T00:48:09.548Z,97.97
2023-05-15T00:49:09.523Z,97.05
2023-05-15T00:50:09.592Z,98.69
2023-05-15T00:51:09.515Z,97.25
2023-05-15T00:52:09.590Z,96.84
2023-05-15T00:53:09.491Z,96.53
2023-05-15T00:54:09.634Z,97.05
2023-05-15T00:55:09.499Z,97.36
2023-05-15T00:56:09.522Z,97.36
2023-05-15T00:57:09.468Z,96.99
2023-05-15T00:58:09.536Z,97.09
2023-05-15T00:59:09.437Z,97.81
2023-05-15T01:00:09.557Z,97.61
2023-05-15T01:01:09.457Z,97.81
2023-05-15T01:02:09.510Z,98.27
2023-05-15T01:03:09.491Z,99.97
2023-05-15T01:04:09.463Z,99.99
2023-05-15T01:05:09.354Z,99.05
2023-05-15T01:06:09.419Z,98.02
2023-05-15T01:07:09.357Z,98.33
2023-05-15T01:08:09.404Z,98.53
2023-05-15T01:09:09.328Z,97.71
2023-05-15T01:10:09.417Z,98.84
2023-05-15T01:11:09.358Z,97.61
2023-05-15T01:12:09.438Z,98.33
2023-05-15T01:13:09.296Z,99.46
2023-05-15T01:14:10.360Z,97.81
2023-05-15T01:15:09.259Z,99.99
2023-05-15T01:16:09.397Z,99.31
2023-05-15T01:17:09.328Z,97.05
2023-05-15T01:18:09.495Z,95.30
2023-05-15T01:19:09.343Z,95.75
2023-05-15T01:20:11.348Z,96.99
2023-05-15T01:21:09.288Z,96.68
2023-05-15T01:22:09.350Z,96.68
2023-05-15T01:23:09.190Z,96.17
2023-05-15T01:24:09.308Z,96.62
2023-05-15T01:25:09.158Z,96.93
2023-05-15T01:26:09.255Z,97.24
2023-05-15T01:27:09.129Z,98.16
2023-05-15T01:28:09.218Z,97.90
2023-05-15T01:29:09.117Z,98.11
2023-05-15T01:30:09.249Z,98.42
2023-05-15T01:31:09.093Z,98.62
2023-05-15T01:32:09.263Z,98.83
2023-05-15T01:33:09.141Z,99.86
2023-05-15T01:34:09.170Z,99.34
2023-05-15T01:35:09.071Z,99.24
2023-05-15T01:36:09.234Z,99.24
2023-05-15T01:37:09.034Z,99.44
2023-05-15T01:38:09.117Z,99.44
2023-05-15T01:39:09.021Z,99.86
2023-05-15T01:40:09.125Z,99.86
2023-05-15T01:41:09.011Z,99.96
2023-05-15T01:42:09.122Z,99.99
2023-05-15T01:43:09.021Z,99.91
2023-05-15T01:44:09.058Z,99.81
2023-05-15T01:45:08.951Z,99.81
2023-05-15T01:46:09.271Z,99.99
2023-05-15T01:47:08.936Z,99.99
2023-05-15T01:48:09.128Z,99.91
2023-05-15T01:49:08.913Z,99.81
2023-05-15T01:50:08.986Z,99.99
2023-05-15T01:51:08.912Z,99.87
2023-05-15T01:52:09.007Z,99.87
2023-05-15T01:53:08.866Z,99.99
2023-05-15T01:54:08.993Z,99.99
2023-05-15T01:55:08.861Z,99.99
2023-05-15T01:56:08.967Z,99.87
2023-05-15T01:57:08.836Z,99.56
2023-05-15T01:58:08.957Z,99.99
2023-05-15T01:59:08.813Z,99.82
2023-05-15T02:00:08.944Z,99.93
2023-05-15T02:01:08.817Z,99.82
2023-05-15T02:02:08.985Z,99.99
2023-05-15T02:03:08.837Z,99.99
2023-05-15T02:04:08.883Z,99.41
2023-05-15T02:05:08.745Z,99.41
2023-05-15T02:06:08.880Z,99.99
2023-05-15T02:07:08.736Z,99.99
2023-05-15T02:08:10.843Z,99.99
2023-05-15T02:09:08.700Z,99.99
2023-05-15T02:10:08.808Z,99.99
2023-05-15T02:11:08.688Z,99.99
2023-05-15T02:12:08.862Z,99.67
2023-05-15T02:13:08.675Z,98.85
2023-05-15T02:14:08.749Z,99.47
2023-05-15T02:15:08.669Z,99.67
2023-05-15T02:16:08.802Z,98.75
2023-05-15T02:17:08.645Z,98.65
2023-05-15T02:18:08.788Z,99.16
2023-05-15T02:19:08.632Z,99.77
2023-05-15T02:20:08.672Z,99.37
2023-05-15T02:21:08.588Z,99.05
2023-05-15T02:22:08.740Z,99.77
2023-05-15T02:23:08.562Z,99.98
2023-05-15T02:24:08.717Z,98.96
2023-05-15T02:25:08.556Z,99.47
2023-05-15T02:26:08.632Z,99.99
2023-05-15T02:27:08.542Z,99.98
2023-05-15T02:28:08.640Z,99.47
2023-05-15T02:29:08.496Z,99.77
2023-05-15T02:30:08.657Z,99.57
2023-05-15T02:31:08.474Z,99.98
2023-05-15T02:32:08.722Z,99.67
2023-05-15T02:33:08.556Z,99.26
2023-05-15T02:34:08.578Z,99.05
2023-05-15T02:35:08.446Z,99.05
2023-05-15T02:36:08.585Z,98.96
2023-05-15T02:37:08.462Z,99.26
2023-05-15T02:38:08.609Z,99.77
2023-05-15T02:39:08.405Z,99.57
2023-05-15T02:40:08.563Z,99.26
2023-05-15T02:41:08.378Z,99.16
2023-05-15T02:42:08.538Z,99.57
2023-05-15T02:43:08.385Z,99.83
2023-05-15T02:44:08.547Z,99.42
2023-05-15T02:45:08.341Z,98.91
2023-05-15T02:46:08.510Z,99.05
2023-05-15T02:47:08.312Z,99.57
2023-05-15T02:48:08.544Z,99.57
2023-05-15T02:49:08.298Z,99.77
2023-05-15T02:50:08.504Z,99.99
2023-05-15T02:51:08.260Z,99.99
2023-05-15T02:52:08.414Z,99.99
2023-05-15T02:53:08.281Z,99.93
2023-05-15T02:54:08.432Z,99.99
2023-05-15T02:55:08.237Z,99.99
2023-05-15T02:56:08.422Z,99.42
2023-05-15T02:57:08.211Z,99.99
2023-05-15T02:58:08.380Z,99.11
2023-05-15T02:59:08.195Z,98.91
2023-05-15T03:00:08.358Z,99.73
2023-05-15T03:01:08.218Z,99.32
2023-05-15T03:02:08.367Z,99.99
2023-05-15T03:03:08.177Z,99.73
2023-05-15T03:04:08.302Z,99.99
2023-05-15T03:05:08.127Z,99.21
2023-05-15T03:06:08.187Z,99.21
2023-05-15T03:07:08.106Z,99.57
2023-05-15T03:08:08.247Z,99.77
2023-05-15T03:09:08.091Z,99.88
2023-05-15T03:10:08.128Z,99.99
2023-05-15T03:11:08.065Z,99.99
2023-05-15T03:12:08.138Z,99.88
2023-05-15T03:13:08.056Z,99.77
2023-05-15T03:14:08.220Z,99.99
2023-05-15T03:15:08.042Z,99.98
2023-05-15T03:16:08.059Z,99.98
2023-05-15T03:17:08.128Z,99.99
2023-05-15T03:18:08.239Z,99.99
2023-05-15T03:19:08.040Z,99.99
2023-05-15T03:20:08.094Z,99.99
2023-05-15T03:21:07.959Z,99.99
2023-05-15T03:22:08.006Z,99.99
2023-05-15T03:23:07.962Z,99.99
2023-05-15T03:24:08.030Z,99.99
2023-05-15T03:25:07.928Z,99.99
2023-05-15T03:26:08.046Z,99.99
2023-05-15T03:27:07.907Z,99.99
2023-05-15T03:28:07.990Z,99.99
2023-05-15T03:29:07.889Z,99.89
2023-05-15T03:30:07.970Z,99.63
2023-05-15T03:31:07.941Z,99.83
2023-05-15T03:32:07.964Z,99.32
2023-05-15T03:33:07.902Z,99.42
2023-05-15T03:34:07.881Z,99.52
2023-05-15T03:35:07.814Z,99.73
2023-05-15T03:36:07.890Z,99.93
2023-05-15T03:37:07.803Z,99.99
2023-05-15T03:38:07.944Z,99.99
2023-05-15T03:39:07.802Z,99.99
2023-05-15T03:40:07.821Z,99.99
2023-05-15T03:41:07.760Z,99.99
2023-05-15T03:42:09.886Z,99.99
2023-05-15T03:43:07.740Z,99.99
2023-05-15T03:44:07.901Z,99.99
2023-05-15T03:45:07.715Z,99.99
2023-05-15T03:46:07.805Z,99.99
2023-05-15T03:47:07.701Z,99.99
2023-05-15T03:48:07.913Z,99.99
2023-05-15T03:49:07.694Z,99.73
2023-05-15T03:50:09.730Z,99.99
2023-05-15T03:51:07.643Z,99.99
2023-05-15T03:52:07.696Z,99.99
2023-05-15T03:53:07.635Z,99.99
2023-05-15T03:54:07.759Z,99.93
2023-05-15T03:55:07.637Z,99.99
2023-05-15T03:56:07.745Z,99.99
2023-05-15T03:57:07.583Z,99.99
2023-05-15T03:58:07.634Z,99.99
2023-05-15T03:59:07.567Z,99.99
2023-05-15T04:00:07.704Z,99.99
2023-05-15T04:01:07.552Z,99.99
2023-05-15T04:02:07.711Z,99.99
2023-05-15T04:03:07.645Z,99.99
2023-05-15T04:04:07.685Z,99.99
2023-05-15T04:05:07.593Z,99.99
2023-05-15T04:06:07.614Z,99.99
2023-05-15T04:07:07.499Z,99.99
2023-05-15T04:08:07.622Z,99.99
2023-05-15T04:09:07.478Z,99.99
2023-05-15T04:10:07.635Z,99.99
2023-05-15T04:11:07.463Z,99.99
2023-05-15T04:12:07.545Z,99.99
2023-05-15T04:13:07.416Z,99.99
2023-05-15T04:14:07.550Z,99.99
2023-05-15T04:15:07.437Z,99.83
2023-05-15T04:16:07.596Z,99.99
2023-05-15T04:17:07.383Z,99.99
2023-05-15T04:18:07.492Z,99.99
2023-05-15T04:19:07.386Z,99.99
2023-05-15T04:20:07.541Z,99.99
2023-05-15T04:21:07.421Z,99.99
2023-05-15T04:22:07.536Z,99.99
2023-05-15T04:23:07.334Z,99.99
2023-05-15T04:24:07.458Z,99.99
2023-05-15T04:25:07.326Z,99.99
2023-05-15T04:26:07.498Z,99.99
2023-05-15T04:27:07.304Z,99.99
2023-05-15T04:28:07.451Z,99.99
2023-05-15T04:29:07.267Z,99.99
2023-05-15T04:30:07.373Z,99.99
2023-05-15T04:31:07.239Z,99.99
2023-05-15T04:32:07.432Z,99.99
2023-05-15T04:33:07.276Z,99.99
2023-05-15T04:34:07.394Z,99.99
2023-05-15T04:35:07.203Z,99.99
2023-05-15T04:36:07.308Z,99.99
2023-05-15T04:37:07.167Z,99.99
2023-05-15T04:38:07.367Z,99.99
2023-05-15T04:39:07.156Z,99.99
2023-05-15T04:40:08.328Z,99.99
2023-05-15T04:41:07.140Z,99.99
2023-05-15T04:42:07.246Z,99.99
2023-05-15T04:43:07.146Z,99.99
2023-05-15T04:44:07.262Z,99.99
2023-05-15T04:45:07.467Z,99.99
2023-05-15T04:46:07.305Z,99.99
2023-05-15T04:47:07.289Z,99.99
2023-05-15T04:48:07.325Z,99.99
2023-05-15T04:49:07.056Z,99.99
2023-05-15T04:50:07.233Z,99.99
2023-05-15T04:51:07.069Z,99.99
2023-05-15T04:52:07.210Z,99.99
2023-05-15T04:53:07.014Z,99.99
2023-05-15T04:54:07.118Z,99.99
2023-05-15T04:55:06.996Z,99.99
2023-05-15T04:56:07.228Z,99.99
2023-05-15T04:57:06.979Z,99.99
2023-05-15T04:58:07.178Z,99.99
2023-05-15T04:59:06.962Z,99.99
2023-05-15T05:00:07.073Z,99.99
2023-05-15T05:01:07.049Z,99.99
2023-05-15T05:02:07.140Z,99.99
2023-05-15T05:03:06.955Z,99.99
2023-05-15T05:04:07.152Z,99.99
2023-05-15T05:05:06.892Z,99.99
2023-05-15T05:06:07.045Z,99.99
2023-05-15T05:07:06.870Z,99.99
2023-05-15T05:08:07.028Z,99.99
2023-05-15T05:09:06.855Z,99.99
2023-05-15T05:10:07.059Z,99.99
2023-05-15T05:11:06.897Z,99.99
2023-05-15T05:12:07.063Z,99.99
2023-05-15T05:13:06.816Z,99.99
2023-05-15T05:14:06.905Z,99.99
2023-05-15T05:15:06.789Z,99.99
2023-05-15T05:16:07.034Z,99.99
2023-05-15T05:17:06.783Z,99.99
2023-05-15T05:18:06.989Z,99.99
2023-05-15T05:19:06.837Z,99.99
2023-05-15T05:20:06.841Z,99.99
2023-05-15T05:21:06.759Z,99.99
2023-05-15T05:22:06.984Z,99.99
2023-05-15T05:23:06.765Z,99.99
2023-05-15T05:24:06.753Z,99.99
2023-05-15T05:25:06.717Z,99.99
2023-05-15T05:26:06.793Z,99.99
2023-05-15T05:27:06.669Z,99.99
2023-05-15T05:28:06.873Z,99.99
2023-05-15T05:29:06.652Z,99.99
2023-05-15T05:30:06.702Z,99.99
2023-05-15T05:31:06.703Z,99.99
2023-05-15T05:32:06.708Z,99.99
2023-05-15T05:33:06.687Z,99.99
2023-05-15T05:34:06.715Z,99.99
2023-05-15T05:35:06.594Z,99.99
2023-05-15T05:36:06.642Z,99.99
2023-05-15T05:37:06.583Z,99.99
2023-05-15T05:38:06.633Z,99.99
2023-05-15T05:39:06.538Z,99.99
2023-05-15T05:40:06.679Z,99.99
2023-05-15T05:41:06.569Z,99.99
2023-05-15T05:42:06.678Z,99.99
2023-05-15T05:43:06.576Z,99.99
2023-05-15T05:44:06.582Z,99.99
2023-05-15T05:45:06.488Z,99.99
2023-05-15T05:46:06.589Z,99.99
2023-05-15T05:47:06.574Z,99.99
2023-05-15T05:48:06.662Z,99.99
2023-05-15T05:49:06.430Z,99.99
2023-05-15T05:50:06.503Z,99.99
2023-05-15T05:51:06.422Z,99.99
2023-05-15T05:52:06.515Z,99.99
2023-05-15T05:53:06.414Z,99.99
2023-05-15T05:54:06.537Z,99.99
2023-05-15T05:55:06.368Z,99.99
2023-05-15T05:56:06.445Z,99.99
2023-05-15T05:57:06.356Z,99.99
2023-05-15T05:58:14.587Z,99.99
2023-05-15T05:59:06.358Z,99.99
2023-05-15T06:00:06.477Z,99.99
2023-05-15T06:01:06.315Z,99.99
2023-05-15T06:02:06.354Z,99.99
2023-05-15T06:03:06.389Z,99.87
2023-05-15T06:04:06.428Z,99.05
2023-05-15T06:05:06.277Z,99.26
2023-05-15T06:06:06.301Z,99.21
2023-05-15T06:07:06.249Z,99.01
2023-05-15T06:08:06.300Z,98.90
2023-05-15T06:09:06.250Z,98.70
2023-05-15T06:10:06.257Z,98.60
2023-05-15T06:11:06.229Z,98.60
2023-05-15T06:12:06.217Z,98.80
2023-05-15T06:13:06.208Z,98.75
2023-05-15T06:14:06.214Z,98.45
2023-05-15T06:15:06.169Z,98.35
2023-05-15T06:16:06.247Z,98.35
2023-05-15T06:17:06.203Z,98.35
2023-05-15T06:18:06.249Z,98.45
2023-05-15T06:19:06.236Z,98.65
2023-05-15T06:20:06.146Z,98.96
2023-05-15T06:21:06.108Z,99.22
2023-05-15T06:22:06.152Z,98.91
2023-05-15T06:23:06.079Z,98.71
2023-05-15T06:24:06.105Z,98.40
2023-05-15T06:25:06.059Z,97.69
2023-05-15T06:26:06.052Z,97.69
2023-05-15T06:27:06.053Z,97.99
2023-05-15T06:28:06.073Z,97.44
2023-05-15T06:29:06.058Z,97.64
2023-05-15T06:30:06.029Z,97.64
2023-05-15T06:31:06.101Z,97.74
2023-05-15T06:32:06.016Z,97.44
2023-05-15T06:33:06.054Z,97.24
2023-05-15T06:34:06.007Z,97.24
2023-05-15T06:35:05.955Z,97.24
2023-05-15T06:36:05.959Z,97.74
2023-05-15T06:37:05.944Z,97.80
2023-05-15T06:38:05.974Z,97.29
2023-05-15T06:39:05.915Z,96.47
2023-05-15T06:40:05.957Z,95.96
2023-05-15T06:41:05.905Z,96.06
2023-05-15T06:42:05.914Z,96.27
2023-05-15T06:43:05.889Z,96.06
2023-05-15T06:44:05.909Z,96.37
2023-05-15T06:45:05.864Z,95.56
2023-05-15T06:46:05.940Z,95.56
2023-05-15T06:47:06.145Z,96.47
2023-05-15T06:48:05.929Z,96.88
2023-05-15T06:49:05.849Z,96.78
2023-05-15T06:50:05.865Z,96.88
2023-05-15T06:51:05.813Z,96.63
2023-05-15T06:52:05.802Z,97.04
2023-05-15T06:53:05.770Z,96.94
2023-05-15T06:54:06.076Z,96.94
2023-05-15T06:55:05.751Z,96.22
2023-05-15T06:56:05.790Z,95.41
2023-05-15T06:57:05.730Z,95.26
2023-05-15T06:58:05.831Z,94.55
2023-05-15T06:59:05.715Z,95.47
2023-05-15T07:00:05.760Z,95.87
2023-05-15T07:01:05.706Z,95.93
2023-05-15T07:02:05.796Z,96.23
2023-05-15T07:03:05.750Z,95.42
2023-05-15T07:04:05.681Z,95.62
2023-05-15T07:05:05.776Z,95.17
2023-05-15T07:06:05.684Z,95.58
2023-05-15T07:07:05.635Z,96.09
2023-05-15T07:08:05.628Z,95.37
2023-05-15T07:09:05.636Z,94.97
2023-05-15T07:10:05.669Z,94.42
2023-05-15T07:11:05.632Z,94.01
2023-05-15T07:12:05.601Z,93.70
2023-05-15T07:13:05.596Z,93.19
2023-05-15T07:14:05.609Z,93.70
2023-05-15T07:15:05.671Z,93.25
2023-05-15T07:16:05.546Z,94.17
2023-05-15T07:17:05.547Z,92.19
2023-05-15T07:18:05.703Z,93.31
2023-05-15T07:19:05.586Z,93.41
2023-05-15T07:20:05.569Z,89.95
2023-05-15T07:21:05.496Z,90.83
2023-05-15T07:22:05.523Z,90.72
2023-05-15T07:23:05.483Z,89.40
2023-05-15T07:24:05.467Z,87.98
2023-05-15T07:25:05.489Z,88.69
2023-05-15T07:26:05.562Z,87.51
2023-05-15T07:27:05.433Z,90.16
2023-05-15T07:28:05.460Z,88.12
2023-05-15T07:29:05.400Z,86.90
2023-05-15T07:30:05.443Z,85.51
2023-05-15T07:31:05.423Z,88.26
2023-05-15T07:32:05.769Z,88.16
2023-05-15T07:33:05.411Z,90.20
2023-05-15T07:34:05.380Z,90.16
2023-05-15T07:35:05.348Z,90.66
2023-05-15T07:36:05.377Z,90.25
2023-05-15T07:37:05.314Z,88.08
2023-05-15T07:38:05.334Z,91.13
2023-05-15T07:39:05.310Z,90.72
2023-05-15T07:40:05.334Z,87.77
2023-05-15T07:41:05.312Z,90.11
2023-05-15T07:42:05.391Z,90.27
2023-05-15T07:43:05.269Z,87.53
2023-05-15T07:44:05.265Z,88.54
2023-05-15T07:45:05.293Z,86.82
2023-05-15T07:46:05.356Z,87.84
2023-05-15T07:47:05.216Z,87.32
2023-05-15T07:48:05.250Z,87.12
2023-05-15T07:49:05.188Z,85.29
2023-05-15T07:50:05.198Z,85.09
2023-05-15T07:51:05.194Z,84.23
2023-05-15T07:52:05.198Z,85.86
2023-05-15T07:53:05.154Z,85.35
2023-05-15T07:54:05.140Z,82.92
2023-05-15T07:55:05.129Z,83.79
2023-05-15T07:56:05.167Z,85.47
2023-05-15T07:57:05.134Z,82.53
2023-05-15T07:58:05.110Z,80.83
2023-05-15T07:59:05.111Z,79.72
2023-05-15T08:00:05.119Z,81.40
2023-05-15T08:01:05.106Z,83.90
2023-05-15T08:02:05.105Z,82.58
2023-05-15T08:03:05.262Z,80.47
2023-05-15T08:04:05.183Z,80.04
2023-05-15T08:05:05.030Z,78.75
2023-05-15T08:06:05.018Z,76.76
2023-05-15T08:07:05.028Z,76.26
2023-05-15T08:08:05.009Z,73.96
2023-05-15T08:09:05.003Z,74.63
2023-05-15T08:10:04.987Z,72.61
2023-05-15T08:11:04.995Z,72.04
2023-05-15T08:12:05.020Z,74.63
2023-05-15T08:13:04.951Z,76.93
2023-05-15T08:14:04.983Z,77.98
2023-05-15T08:15:04.993Z,77.01
2023-05-15T08:16:04.995Z,77.61
2023-05-15T08:17:04.921Z,81.81
2023-05-15T08:18:04.997Z,77.65
2023-05-15T08:19:05.030Z,78.77
2023-05-15T08:20:04.887Z,79.98
2023-05-15T08:21:04.913Z,80.79
2023-05-15T08:22:04.868Z,80.45
2023-05-15T08:23:04.863Z,80.01
2023-05-15T08:24:04.904Z,77.84
2023-05-15T08:25:04.830Z,76.32
2023-05-15T08:26:04.936Z,74.13
2023-05-15T08:27:04.792Z,74.60
2023-05-15T08:28:04.849Z,77.23
2023-05-15T08:29:04.821Z,79.35
2023-05-15T08:30:04.781Z,76.66
2023-05-15T08:31:04.840Z,75.89
2023-05-15T08:32:04.789Z,75.21
2023-05-15T08:33:04.883Z,76.09
2023-05-15T08:34:04.765Z,76.86
2023-05-15T08:35:04.725Z,76.89
2023-05-15T08:36:04.751Z,74.53
2023-05-15T08:37:04.696Z,73.22
2023-05-15T08:38:04.693Z,75.71
2023-05-15T08:39:04.702Z,74.12
2023-05-15T08:40:04.694Z,68.81
2023-05-15T08:41:04.659Z,69.22
2023-05-15T08:42:04.685Z,65.23
2023-05-15T08:43:04.641Z,67.18
2023-05-15T08:44:04.668Z,67.82
2023-05-15T08:45:04.616Z,64.04
2023-05-15T08:46:04.642Z,63.34
2023-05-15T08:47:04.656Z,60.31
2023-05-15T08:48:04.672Z,59.78
2023-05-15T08:49:04.631Z,62.05
2023-05-15T08:50:04.586Z,60.58
2023-05-15T08:51:04.555Z,59.48
2023-05-15T08:52:04.557Z,59.42
2023-05-15T08:53:04.533Z,57.92
2023-05-15T08:54:04.574Z,55.72
2023-05-15T08:55:04.546Z,55.35
2023-05-15T08:56:04.494Z,59.65
2023-05-15T08:57:04.490Z,60.32
2023-05-15T08:58:04.481Z,59.59
2023-05-15T08:59:04.486Z,60.77
2023-05-15T09:00:05.064Z,59.74
2023-05-15T09:01:04.453Z,56.64
2023-05-15T09:02:04.483Z,55.24
2023-05-15T09:03:04.516Z,52.64
2023-05-15T09:04:04.610Z,53.94
2023-05-15T09:05:04.420Z,55.57
2023-05-15T09:06:04.404Z,55.35
2023-05-15T09:07:04.398Z,53.52
2023-05-15T09:08:04.390Z,55.02
2023-05-15T09:09:04.389Z,56.59
2023-05-15T09:10:04.419Z,56.04
2023-05-15T09:11:04.343Z,54.04
2023-05-15T09:12:04.353Z,52.92
2023-05-15T09:13:04.347Z,53.89
2023-05-15T09:14:04.349Z,53.79
2023-05-15T09:15:04.317Z,52.27
2023-05-15T09:16:04.301Z,52.94
2023-05-15T09:17:04.424Z,50.32
2023-05-15T09:18:04.359Z,49.48
2023-05-15T09:19:04.364Z,51.15
2023-05-15T09:20:04.267Z,51.42
2023-05-15T09:21:04.272Z,49.90
2023-05-15T09:22:04.252Z,48.01
2023-05-15T09:23:04.227Z,53.29
2023-05-15T09:24:04.247Z,49.93
2023-05-15T09:25:04.221Z,51.92
2023-05-15T09:26:04.234Z,50.70
2023-05-15T09:27:04.227Z,49.08
2023-05-15T09:28:04.240Z,48.56
2023-05-15T09:29:04.188Z,52.04
2023-05-15T09:30:04.210Z,47.74
2023-05-15T09:31:04.230Z,51.03
2023-05-15T09:32:04.208Z,49.31
2023-05-15T09:33:04.176Z,50.25
2023-05-15T09:34:04.150Z,49.16
2023-05-15T09:35:04.116Z,49.53
2023-05-15T09:36:04.150Z,48.38
2023-05-15T09:37:04.113Z,51.29
2023-05-15T09:38:04.098Z,51.67
2023-05-15T09:39:04.082Z,52.32
2023-05-15T09:40:04.110Z,56.57
2023-05-15T09:41:04.113Z,55.13
2023-05-15T09:42:04.073Z,57.06
2023-05-15T09:43:04.054Z,58.09
2023-05-15T09:44:04.042Z,58.42
2023-05-15T09:45:04.038Z,61.49
2023-05-15T09:46:04.095Z,60.41
2023-05-15T09:47:04.086Z,58.53
2023-05-15T09:48:04.102Z,60.64
2023-05-15T09:49:04.009Z,65.59
2023-05-15T09:50:04.010Z,64.79
2023-05-15T09:51:04.005Z,64.39
2023-05-15T09:52:03.966Z,65.39
2023-05-15T09:53:03.953Z,64.89
2023-05-15T09:54:03.963Z,60.67
2023-05-15T09:55:03.956Z,62.95
2023-05-15T09:56:03.981Z,61.51
2023-05-15T09:57:03.934Z,57.59
2023-05-15T09:58:03.901Z,55.87
2023-05-15T09:59:03.887Z,53.04
2023-05-15T10:00:03.879Z,51.57
2023-05-15T10:01:03.897Z,51.03
2023-05-15T10:02:03.958Z,48.61
2023-05-15T10:03:03.929Z,47.37
2023-05-15T10:04:03.837Z,47.44
2023-05-15T10:05:03.856Z,50.50
2023-05-15T10:06:03.915Z,48.02
2023-05-15T10:07:03.846Z,48.66
2023-05-15T10:08:03.814Z,49.35
2023-05-15T10:09:03.817Z,53.52
2023-05-15T10:10:03.805Z,50.49
2023-05-15T10:11:03.794Z,54.44
2023-05-15T10:12:03.804Z,55.20
2023-05-15T10:13:03.749Z,57.83
2023-05-15T10:14:03.769Z,61.57
2023-05-15T10:15:03.743Z,61.80
2023-05-15T10:16:03.859Z,63.50
2023-05-15T10:17:03.747Z,59.99
2023-05-15T10:18:03.753Z,60.32
2023-05-15T10:19:05.070Z,64.43
2023-05-15T10:20:03.726Z,62.96
2023-05-15T10:21:03.678Z,60.55
2023-05-15T10:22:03.709Z,62.19
2023-05-15T10:23:03.663Z,63.49
2023-05-15T10:24:03.674Z,61.82
2023-05-15T10:25:03.627Z,59.91
2023-05-15T10:26:03.624Z,60.21
2023-05-15T10:27:03.639Z,60.94
2023-05-15T10:28:03.618Z,60.33
2023-05-15T10:29:03.599Z,60.74
2023-05-15T10:30:03.647Z,61.65
2023-05-15T10:31:03.641Z,62.75
2023-05-15T10:32:03.599Z,64.76
2023-05-15T10:33:03.582Z,61.85
2023-05-15T10:34:03.560Z,60.67
2023-05-15T10:35:03.549Z,58.45
2023-05-15T10:36:03.526Z,61.47
2023-05-15T10:37:03.536Z,60.29
2023-05-15T10:38:03.525Z,61.30
2023-05-15T10:39:03.487Z,61.93
2023-05-15T10:40:03.495Z,61.86
2023-05-15T10:41:15.680Z,64.38
2023-05-15T10:42:03.488Z,67.54
2023-05-15T10:43:03.499Z,65.55
2023-05-15T10:44:03.451Z,69.99
2023-05-15T10:45:03.446Z,72.54
2023-05-15T10:46:03.420Z,72.48
2023-05-15T10:47:03.493Z,70.89
2023-05-15T10:48:03.527Z,71.80
2023-05-15T10:49:03.389Z,78.17
2023-05-15T10:50:03.375Z,77.26
2023-05-15T10:51:03.375Z,71.50
2023-05-15T10:52:03.342Z,69.48
2023-05-15T10:53:03.426Z,72.41
2023-05-15T10:54:03.352Z,71.64
2023-05-15T10:55:03.343Z,73.35
2023-05-15T10:56:03.371Z,74.87
2023-05-15T10:57:03.327Z,72.44
2023-05-15T10:58:03.333Z,72.14
2023-05-15T10:59:03.333Z,72.44
2023-05-15T11:00:03.282Z,74.30
2023-05-15T11:01:03.352Z,71.87
2023-05-15T11:02:03.253Z,68.84
2023-05-15T11:03:03.333Z,67.22
2023-05-15T11:04:03.237Z,63.58
2023-05-15T11:05:03.218Z,63.41
2023-05-15T11:06:03.203Z,66.64
2023-05-15T11:07:03.207Z,60.17
2023-05-15T11:08:03.203Z,60.38
2023-05-15T11:09:03.230Z,59.87
2023-05-15T11:10:04.322Z,58.36
2023-05-15T11:11:03.182Z,61.11
2023-05-15T11:12:03.192Z,61.82
2023-05-15T11:13:03.192Z,61.82
2023-05-15T11:14:03.132Z,59.39
2023-05-15T11:15:03.152Z,61.01
2023-05-15T11:16:03.104Z,60.50
2023-05-15T11:17:03.158Z,62.93
2023-05-15T11:18:03.144Z,63.54
2023-05-15T11:19:03.122Z,63.13
2023-05-15T11:20:03.064Z,63.95
2023-05-15T11:21:03.064Z,64.04
2023-05-15T11:22:03.034Z,60.71
2023-05-15T11:23:03.032Z,62.43
2023-05-15T11:24:03.048Z,61.65
2023-05-15T11:25:03.053Z,62.05
2023-05-15T11:26:03.021Z,63.37
2023-05-15T11:27:03.062Z,66.10
2023-05-15T11:28:02.996Z,64.76
2023-05-15T11:29:02.982Z,64.04
2023-05-15T11:30:02.996Z,63.95
2023-05-15T11:31:02.984Z,64.45
2023-05-15T11:32:02.948Z,61.49
2023-05-15T11:33:03.029Z,63.10
2023-05-15T11:34:02.918Z,65.13
2023-05-15T11:35:02.939Z,65.00
2023-05-15T11:36:02.917Z,61.66
2023-05-15T11:37:02.900Z,60.45
2023-05-15T11:38:02.880Z,61.76
2023-05-15T11:39:02.868Z,61.83
2023-05-15T11:40:02.856Z,62.54
2023-05-15T11:41:02.955Z,60.32
2023-05-15T11:42:02.848Z,58.70
2023-05-15T11:43:02.862Z,61.63
2023-05-15T11:44:02.818Z,59.21
2023-05-15T11:45:02.811Z,60.29
2023-05-15T11:46:02.885Z,60.89
2023-05-15T11:47:02.922Z,60.29
2023-05-15T11:48:02.875Z,56.96
2023-05-15T11:49:02.786Z,60.19
2023-05-15T11:50:02.744Z,57.06
2023-05-15T11:51:02.798Z,61.51
2023-05-15T11:52:02.723Z,56.35
2023-05-15T11:53:02.783Z,58.78
2023-05-15T11:54:02.720Z,60.52
2023-05-15T11:55:02.711Z,58.37
2023-05-15T11:56:02.716Z,59.38
2023-05-15T11:57:02.680Z,60.49
2023-05-15T11:58:02.678Z,58.58
2023-05-15T11:59:02.694Z,58.87
2023-05-15T12:00:02.657Z,59.78
2023-05-15T12:01:02.699Z,67.06
2023-05-15T12:02:02.622Z,60.16
2023-05-15T12:03:02.711Z,57.54
2023-05-15T12:04:02.897Z,55.82
2023-05-15T12:05:02.752Z,60.46
2023-05-15T12:06:02.616Z,59.08
2023-05-15T12:07:03.303Z,59.69
2023-05-15T12:08:02.570Z,59.58
2023-05-15T12:09:02.570Z,61.51
2023-05-15T12:10:02.543Z,58.87
2023-05-15T12:11:02.560Z,60.49
2023-05-15T12:12:02.549Z,59.69
2023-05-15T12:13:02.581Z,58.80
2023-05-15T12:14:02.514Z,60.72
2023-05-15T12:15:02.489Z,63.65
2023-05-15T12:16:02.605Z,61.40
2023-05-15T12:17:02.553Z,64.73
2023-05-15T12:18:02.513Z,64.23
2023-05-15T12:19:02.579Z,62.28
2023-05-15T12:20:02.451Z,64.90
2023-05-15T12:21:02.475Z,67.40
2023-05-15T12:22:02.415Z,61.85
2023-05-15T12:23:02.406Z,61.75
2023-05-15T12:25:02.408Z,60.24
2023-05-15T12:26:02.383Z,65.38
2023-05-15T12:27:02.392Z,62.35
2023-05-15T12:28:02.357Z,61.44
2023-05-15T12:29:02.376Z,63.16
2023-05-15T12:30:02.350Z,62.05
2023-05-15T12:31:02.436Z,57.10
2023-05-15T12:32:02.442Z,61.55
2023-05-15T12:33:02.363Z,60.16
2023-05-15T12:34:02.305Z,61.77
2023-05-15T12:35:02.309Z,61.47
2023-05-15T12:36:02.281Z,64.00
2023-05-15T12:37:02.261Z,61.77
2023-05-15T12:38:02.272Z,61.17
2023-05-15T12:39:02.260Z,61.71
2023-05-15T12:40:02.225Z,62.82
2023-05-15T12:41:02.276Z,62.62
2023-05-15T12:42:02.206Z,60.82
2023-05-15T12:43:02.228Z,62.04
2023-05-15T12:44:02.186Z,63.25
2023-05-15T12:45:02.191Z,65.47
2023-05-15T12:46:02.256Z,61.53
2023-05-15T12:47:02.172Z,62.24
2023-05-15T12:48:02.237Z,63.85
2023-05-15T12:49:02.168Z,66.38
2023-05-15T12:50:02.128Z,64.67
2023-05-15T12:51:02.126Z,62.74
2023-05-15T12:52:02.107Z,65.88
2023-05-15T12:53:02.197Z,64.56